Sunday, July 22, 2018, 12:41 PM GMT
Back to Local

CYOW, Ottawa Int'L. Ont.

Location: , , Canada Lat: 45.317
Local Time: 12:41 PM GMT (12:41 GMT) Lon: -75.667
Time Zone: GMT Elev: 380 ft

Show me the last for .
Show Coded

Time T Td Feel RH Dir Speed Gust Alt SLP Vis Weather Sky Remarks
2018-07-22 12:16 66 54 - 63 70° 18 - 29.97 29.98 15 -RA OVC050 None
2018-07-22 12:00 64 54 - 67 70° 14 - 29.97 29.97 15 BKN048 BKN120 None
2018-07-22 11:00 64 55 - 72 50° 13 - 29.97 29.97 15 SCT058 BKN120 BKN240 None
2018-07-22 10:00 63 55 - 77 50° 13 - 29.97 29.97 15 FEW080 SCT200 BKN240 None
2018-07-22 09:00 63 57 - 82 70° 9 - 29.98 29.98 15 SCT200 BKN250 None
2018-07-22 08:00 64 55 - 72 60° 9 - 29.98 29.98 15 BKN250 None
2018-07-22 07:00 63 54 - 72 100° 7 - 29.99 29.99 15 BKN250 None
2018-07-22 06:00 66 55 - 68 90° 8 - 29.99 29.99 15 BKN250 None
2018-07-22 05:00 66 55 - 68 100° 8 - 30.00 30.00 15 SCT250 None
2018-07-22 04:00 70 55 - 60 100° 10 - 30.00 30.00 15 FEW120 SCT250 None
2018-07-22 03:00 72 55 76 56 100° 10 - 30.00 30.00 15 FEW120 BKN240 None
2018-07-22 02:00 75 57 78 53 60° 12 - 29.99 29.99 15 SCT120 BKN240 None
2018-07-22 01:00 79 55 79 44 60° 9 - 29.99 29.99 15 SCT110 BKN240 None
2018-07-22 00:00 81 54 - 39 70° 9 - 29.98 29.98 15 SCT110 SCT190 BKN240 None
2018-07-21 23:00 84 55 - 37 80° 14 20 29.98 29.98 15 FEW190 BKN240 None
2018-07-21 22:00 86 55 - 35 120° 7 - 29.98 29.98 15 FEW070 FEW190 BKN240 None
2018-07-21 21:00 88 52 - 29 110° 15 21 29.98 29.98 15 FEW070 FEW180 BKN240 None
2018-07-21 20:00 88 55 - 33 80° 13 21 29.99 29.99 15 FEW070 SCT180 BKN240 None
2018-07-21 19:00 86 55 - 35 120° 14 22 30.01 30.01 15 FEW060 BKN240 None
2018-07-21 18:00 84 57 - 39 100° 13 22 30.03 30.03 15 FEW060 BKN240 None
2018-07-21 17:00 81 57 81 44 120° 9 17 30.05 30.05 15 FEW056 BKN240 None
2018-07-21 16:00 82 55 - 39 130° 13 22 30.06 30.06 15 FEW050 BKN240 None
2018-07-21 15:00 81 52 - 36 130° 15 22 30.07 30.07 15 FEW040 BKN240 None
2018-07-21 14:00 79 55 79 44 150° 14 - 30.08 30.08 15 BKN240 None
2018-07-21 13:00 75 57 78 53 150° 10 - 30.07 30.07 15 SCT240 None

Support USWX by starting your Amazon purchase here.